Time;durP1;ratioP1;P1;durP2;ratioP2;P2;SDS_P1;SDS_P2;PMS_P1;PMS_P2;Temp;Humidity;BMP_temperature;BMP_pressure;BME280_temperature;BME280_humidity;BME280_pressure;Samples;Min_cycle;Max_cycle;Signal;HPM_P1;HPM_P2
2022/07/02 00:03:36;;;;;;;9.30;6.90;;;;;;;24.43;53.64;99264.31;233738;1217;139344;-58
2022/07/02 00:08:42;;;;;;;8.90;7.60;;;;;;;24.34;53.89;99263.94;233748;1216;141309;-57
2022/07/02 00:13:48;;;;;;;7.80;7.00;;;;;;;24.27;54.26;99273.93;233549;1217;139571;-57
2022/07/02 00:18:51;;;;;;;8.00;6.40;;;;;;;24.20;54.27;99270.36;232459;1216;140029;-57
2022/07/02 00:23:54;;;;;;;7.10;6.00;;;;;;;24.14;54.38;99272.05;233527;1217;138931;-58
2022/07/02 00:29:24;;;;;;;6.50;5.70;;;;;;;24.08;54.37;99274.93;233670;1217;139783;-57
2022/07/02 00:34:29;;;;;;;8.50;6.40;;;;;;;24.05;54.49;99279.11;233279;1217;139304;-56
2022/07/02 00:39:32;;;;;;;6.90;5.40;;;;;;;23.95;54.51;99290.30;233606;1217;140353;-54
2022/07/02 00:44:35;;;;;;;7.70;6.40;;;;;;;23.90;54.51;99295.27;233650;1217;139950;-56
2022/07/02 00:49:38;;;;;;;7.80;6.80;;;;;;;23.87;54.52;99296.44;233589;1217;140992;-54
2022/07/02 00:54:41;;;;;;;7.70;7.00;;;;;;;23.78;54.56;99285.16;233564;1217;139524;-54
2022/07/02 00:59:45;;;;;;;8.00;6.80;;;;;;;23.68;54.72;99270.83;233498;1217;141555;-54
2022/07/02 01:04:50;;;;;;;8.20;7.20;;;;;;;23.67;54.71;99269.94;233535;1217;139002;-57
2022/07/02 01:15:17;;;;;;;8.80;7.00;;;;;;;23.46;54.81;99218.84;233549;1217;140471;-56
2022/07/02 01:20:20;;;;;;;6.80;6.10;;;;;;;23.43;54.99;99223.02;233485;1217;141393;-57
2022/07/02 01:25:23;;;;;;;7.80;6.40;;;;;;;23.40;55.12;99229.98;233535;1217;142128;-55
2022/07/02 01:30:26;;;;;;;9.80;7.70;;;;;;;23.43;55.33;99248.55;233618;1217;139188;-56
2022/07/02 01:35:29;;;;;;;8.70;7.80;;;;;;;23.43;55.37;99274.79;233508;1215;138589;-56
2022/07/02 01:40:32;;;;;;;12.00;9.20;;;;;;;23.35;55.41;99284.48;233521;1217;141566;-56
2022/07/02 01:45:35;;;;;;;13.70;9.40;;;;;;;23.32;55.40;99296.82;233400;1217;138794;-57
2022/07/02 01:50:39;;;;;;;12.00;10.20;;;;;;;23.24;55.49;99306.81;233596;1217;140583;-55
2022/07/02 01:55:42;;;;;;;12.20;10.70;;;;;;;23.16;55.46;99316.66;233453;1217;139218;-55
2022/07/02 02:00:45;;;;;;;15.30;9.50;;;;;;;23.00;55.42;99296.77;233536;1217;140685;-57
2022/07/02 02:05:52;;;;;;;12.00;10.10;;;;;;;22.95;55.69;99313.56;233662;1217;139368;-57
2022/07/02 02:10:55;;;;;;;16.00;11.60;;;;;;;22.94;55.83;99303.70;233525;1217;140242;-56
2022/07/02 02:15:58;;;;;;;15.40;12.10;;;;;;;22.89;55.98;99313.26;233677;1215;235743;-56
2022/07/02 02:21:02;;;;;;;15.30;13.00;;;;;;;22.80;56.13;99314.52;233663;1217;140755;-56
2022/07/02 02:26:05;;;;;;;16.40;13.00;;;;;;;22.71;56.20;99318.31;233639;1217;138935;-55
2022/07/02 02:31:08;;;;;;;17.40;12.80;;;;;;;22.64;56.43;99327.73;233620;1217;142301;-56
2022/07/02 02:36:11;;;;;;;21.50;14.40;;;;;;;22.61;56.57;99342.98;233480;1219;139851;-54
2022/07/02 02:41:14;;;;;;;19.50;16.00;;;;;;;22.54;56.73;99336.30;233602;1216;140951;-55
2022/07/02 02:46:17;;;;;;;18.60;15.80;;;;;;;22.52;56.83;99347.67;233620;1217;139894;-55
2022/07/02 02:51:20;;;;;;;19.70;16.10;;;;;;;22.47;56.95;99362.92;233661;1217;140457;-55
2022/07/02 02:56:23;;;;;;;27.30;17.00;;;;;;;22.38;57.04;99365.09;233502;1217;140455;-54
2022/07/02 03:01:27;;;;;;;24.00;17.70;;;;;;;22.35;57.16;99378.64;233611;1217;140956;-57
2022/07/02 03:06:30;;;;;;;25.10;19.20;;;;;;;22.33;57.22;99388.08;233585;1217;140978;-56
2022/07/02 03:11:33;;;;;;;64.20;49.80;;;;;;;22.28;57.33;99394.56;232644;1217;139550;-57
2022/07/02 03:16:40;;;;;;;28.90;20.20;;;;;;;22.30;57.69;99394.36;233548;1217;140062;-58
2022/07/02 03:21:43;;;;;;;30.00;19.80;;;;;;;22.38;57.62;99388.39;233521;1215;139439;-58
2022/07/02 03:26:46;;;;;;;72.00;60.80;;;;;;;22.43;57.60;99376.71;233551;1217;140384;-56
2022/07/02 03:31:49;;;;;;;23.30;19.80;;;;;;;22.42;57.26;99387.14;233518;1217;140340;-57
2022/07/02 03:36:52;;;;;;;21.50;18.00;;;;;;;22.43;57.45;99386.81;233502;1217;140222;-58
2022/07/02 03:41:55;;;;;;;25.70;16.70;;;;;;;22.53;57.53;99396.44;233617;1217;140270;-56
2022/07/02 03:46:58;;;;;;;17.30;13.20;;;;;;;22.53;57.31;99403.98;233463;1217;141272;-56
2022/07/02 03:52:01;;;;;;;18.00;13.30;;;;;;;22.61;57.20;99427.58;233011;1217;139481;-58
2022/07/02 03:57:05;;;;;;;11.10;9.90;;;;;;;22.59;56.97;99436.44;233372;1217;140834;-58
2022/07/02 04:02:07;;;;;;;11.40;10.10;;;;;;;22.65;56.79;99460.64;233534;1217;140660;-58
2022/07/02 04:07:11;;;;;;;10.30;7.80;;;;;;;22.62;56.50;99473.64;233545;1217;140043;-57
2022/07/02 04:12:14;;;;;;;37.70;29.50;;;;;;;22.53;56.23;99463.66;233591;1217;143750;-57
2022/07/02 04:17:17;;;;;;;7.30;6.30;;;;;;;22.39;55.97;99478.56;233639;1217;141622;-57
2022/07/02 04:22:20;;;;;;;31.30;26.50;;;;;;;22.35;56.26;99491.96;233523;1217;140097;-57
2022/07/02 04:27:23;;;;;;;6.70;6.00;;;;;;;22.39;56.39;99492.84;233582;1217;139531;-56
2022/07/02 04:32:26;;;;;;;10.30;5.50;;;;;;;22.27;56.05;99486.17;233658;1217;140169;-56
2022/07/02 04:37:29;;;;;;;7.20;5.10;;;;;;;22.06;56.25;99477.18;233655;1216;139373;-55
2022/07/02 04:42:32;;;;;;;7.70;5.20;;;;;;;21.90;56.33;99474.17;233289;1216;139727;-57
2022/07/02 04:47:35;;;;;;;6.90;4.80;;;;;;;21.79;56.51;99467.73;233493;1217;140238;-58
2022/07/02 04:52:38;;;;;;;4.90;4.20;;;;;;;21.67;56.81;99477.20;233497;1215;140432;-57
2022/07/02 04:57:41;;;;;;;6.10;4.50;;;;;;;21.65;57.18;99485.41;232319;1217;141077;-57
2022/07/02 05:02:44;;;;;;;7.00;5.50;;;;;;;21.66;57.45;99487.98;233424;1217;140754;-57
2022/07/02 05:07:47;;;;;;;6.10;5.50;;;;;;;21.71;57.65;99497.80;233433;1217;141116;-55
2022/07/02 05:12:50;;;;;;;7.10;5.90;;;;;;;21.71;57.67;99501.77;233480;1217;138885;-57
2022/07/02 05:17:53;;;;;;;8.60;5.70;;;;;;;21.67;57.65;99496.77;233409;1217;140638;-58
2022/07/02 05:22:56;;;;;;;9.90;6.40;;;;;;;21.67;57.77;99510.69;233459;1217;139365;-58
2022/07/02 05:27:59;;;;;;;7.20;6.40;;;;;;;21.66;57.80;99522.08;233445;1217;139731;-56
2022/07/02 05:33:02;;;;;;;7.30;5.70;;;;;;;21.56;57.75;99533.80;233566;1217;138816;-59
2022/07/02 05:38:05;;;;;;;8.00;5.60;;;;;;;21.54;57.71;99535.48;233454;1217;140725;-57
2022/07/02 05:43:08;;;;;;;10.80;6.10;;;;;;;21.53;57.92;99548.03;233516;1217;138944;-57
2022/07/02 05:48:11;;;;;;;8.20;6.20;;;;;;;21.54;57.92;99546.11;233611;1217;140917;-57
2022/07/02 05:53:14;;;;;;;6.50;5.70;;;;;;;21.57;58.13;99545.05;233359;1219;138644;-58
2022/07/02 05:58:17;;;;;;;7.10;5.10;;;;;;;21.60;58.01;99552.54;233470;1217;140185;-57
2022/07/02 06:03:20;;;;;;;7.00;5.90;;;;;;;21.62;58.00;99563.36;233429;1217;139407;-59
2022/07/02 06:08:23;;;;;;;10.40;6.40;;;;;;;21.61;57.88;99573.21;233566;1217;139869;-57
2022/07/02 06:13:26;;;;;;;10.70;9.60;;;;;;;21.68;58.01;99580.42;233703;1216;142464;-58
2022/07/02 06:18:29;;;;;;;13.40;11.30;;;;;;;21.74;57.93;99588.17;233551;1214;140302;-58
2022/07/02 06:23:32;;;;;;;14.90;11.40;;;;;;;21.78;58.00;99592.25;232666;1215;139964;-57
2022/07/02 06:28:35;;;;;;;20.90;16.10;;;;;;;21.79;57.98;99601.00;233697;1216;140159;-58
2022/07/02 06:33:39;;;;;;;12.50;9.90;;;;;;;21.77;58.00;99600.34;233656;1217;139347;-58
2022/07/02 06:38:42;;;;;;;10.70;8.80;;;;;;;21.76;57.98;99613.26;233421;1216;139972;-58
2022/07/02 06:43:46;;;;;;;9.90;6.40;;;;;;;21.69;58.11;99618.66;233446;1217;139354;-57
2022/07/02 06:48:49;;;;;;;10.50;7.70;;;;;;;21.62;58.24;99621.84;233530;1216;139560;-58
2022/07/02 06:53:55;;;;;;;6.20;4.00;;;;;;;21.62;58.50;99635.05;233651;1217;140534;-58
2022/07/02 06:58:58;;;;;;;5.80;3.50;;;;;;;21.67;58.52;99643.71;233481;1216;139801;-57
2022/07/02 07:04:01;;;;;;;7.30;4.80;;;;;;;21.61;58.49;99642.34;233495;1217;139176;-57
2022/07/02 07:09:05;;;;;;;6.30;5.70;;;;;;;21.52;58.55;99648.86;233492;1216;138931;-57
2022/07/02 07:14:08;;;;;;;7.60;6.20;;;;;;;21.44;58.75;99648.55;233607;1217;141332;-57
2022/07/02 07:19:11;;;;;;;8.70;5.80;;;;;;;21.42;58.90;99652.14;233457;1217;139916;-58
2022/07/02 07:24:17;;;;;;;8.30;6.80;;;;;;;21.41;58.96;99655.65;233422;1217;140301;-59
2022/07/02 07:29:20;;;;;;;10.20;9.20;;;;;;;21.38;59.13;99663.86;233581;1217;139054;-58
2022/07/02 07:34:23;;;;;;;11.00;9.30;;;;;;;21.31;59.26;99669.44;233595;1217;138936;-58
2022/07/02 07:39:26;;;;;;;11.40;10.20;;;;;;;21.34;59.37;99682.73;233504;1216;139337;-58
2022/07/02 07:44:29;;;;;;;12.40;11.10;;;;;;;21.32;59.59;99690.81;233464;1217;139525;-57
2022/07/02 07:49:32;;;;;;;12.40;10.60;;;;;;;21.33;59.51;99695.11;233484;1217;139295;-57
2022/07/02 07:54:36;;;;;;;10.10;8.80;;;;;;;21.31;59.48;99697.09;233594;1217;139672;-57
2022/07/02 07:59:40;;;;;;;10.90;8.70;;;;;;;21.24;59.62;99699.00;233654;1217;140616;-58
2022/07/02 08:04:43;;;;;;;11.00;8.70;;;;;;;21.23;59.71;99706.31;233404;1217;139900;-57
2022/07/02 08:09:52;;;;;;;9.90;7.10;;;;;;;21.16;59.86;99714.77;233443;1215;139337;-58
2022/07/02 08:14:55;;;;;;;6.50;5.50;;;;;;;21.15;59.87;99713.55;233616;1217;139303;-58
2022/07/02 08:19:58;;;;;;;5.10;4.60;;;;;;;21.19;59.70;99718.85;233589;1215;138662;-57
2022/07/02 08:25:03;;;;;;;7.10;4.70;;;;;;;21.17;59.54;99719.74;233504;1216;138966;-57
2022/07/02 08:30:07;;;;;;;5.10;4.60;;;;;;;21.17;59.48;99722.45;233624;1217;139322;-58
2022/07/02 08:35:10;;;;;;;5.50;4.40;;;;;;;21.16;59.37;99712.23;233606;1216;138527;-58
2022/07/02 08:40:13;;;;;;;5.10;4.50;;;;;;;21.29;59.53;99714.01;233494;1217;139590;-57
2022/07/02 08:45:18;;;;;;;5.40;4.00;;;;;;;21.33;59.22;99722.00;233665;1217;141279;-58
2022/07/02 08:50:23;;;;;;;11.50;9.10;;;;;;;21.35;59.24;99718.51;233621;1217;138852;-58
2022/07/02 08:55:30;;;;;;;4.80;3.90;;;;;;;21.39;58.95;99723.77;233622;1217;138808;-59
2022/07/02 09:00:33;;;;;;;5.20;3.70;;;;;;;21.37;58.86;99730.42;233657;1217;139134;-57
2022/07/02 09:05:39;;;;;;;5.60;3.40;;;;;;;21.49;58.97;99735.83;233693;1217;139756;-57
2022/07/02 09:10:47;;;;;;;4.10;3.30;;;;;;;21.54;58.64;99738.01;233572;1216;139894;-58
2022/07/02 09:15:52;;;;;;;3.90;3.20;;;;;;;21.61;58.79;99738.24;233581;1216;139689;-58
2022/07/02 09:20:55;;;;;;;3.30;3.00;;;;;;;21.63;58.64;99739.84;233605;1217;139855;-58
2022/07/02 09:25:58;;;;;;;3.30;3.00;;;;;;;21.75;58.54;99743.07;233620;1217;138924;-58
2022/07/02 09:31:03;;;;;;;4.90;3.50;;;;;;;21.76;58.09;99743.33;233625;1217;139498;-59
2022/07/02 09:36:11;;;;;;;4.70;3.80;;;;;;;21.73;58.00;99744.70;233553;1217;139036;-59
2022/07/02 09:41:20;;;;;;;4.30;3.90;;;;;;;21.70;57.97;99742.60;233425;1216;139560;-59
2022/07/02 09:46:23;;;;;;;4.00;3.60;;;;;;;21.67;57.90;99736.77;233489;1217;138928;-57
2022/07/02 09:51:27;;;;;;;4.30;3.20;;;;;;;21.70;57.93;99739.02;233585;1217;140827;-58
2022/07/02 09:56:30;;;;;;;6.20;4.10;;;;;;;21.72;57.97;99740.96;233535;1217;138895;-58
2022/07/02 10:01:43;;;;;;;8.20;5.00;;;;;;;21.68;57.86;99742.02;233503;1217;139501;-58
2022/07/02 10:06:46;;;;;;;7.40;4.50;;;;;;;21.65;57.83;99751.23;233494;1217;139202;-58
2022/07/02 10:11:50;;;;;;;6.00;4.50;;;;;;;21.56;57.79;99752.15;233572;1216;138426;-57
2022/07/02 10:16:55;;;;;;;7.40;5.40;;;;;;;21.53;57.81;99760.39;233548;1217;138476;-58
2022/07/02 10:21:59;;;;;;;6.00;5.00;;;;;;;21.44;57.87;99753.23;233504;1217;138943;-58
2022/07/02 10:27:02;;;;;;;8.80;5.80;;;;;;;21.49;58.15;99760.40;233519;1217;138631;-58
2022/07/02 10:32:32;;;;;;;8.60;5.70;;;;;;;21.59;58.04;99759.64;233574;1217;139104;-58
2022/07/02 10:37:39;;;;;;;6.50;4.90;;;;;;;21.68;58.01;99751.61;233483;1217;139518;-59
2022/07/02 10:42:48;;;;;;;5.60;4.70;;;;;;;21.87;58.09;99763.58;233450;1217;138975;-59
2022/07/02 10:48:02;;;;;;;15.10;13.10;;;;;;;21.97;57.83;99765.31;233706;1217;138865;-59
2022/07/02 10:53:22;;;;;;;15.80;12.60;;;;;;;21.98;57.56;99781.27;233413;1216;139939;-58
2022/07/02 10:58:36;;;;;;;15.70;14.00;;;;;;;21.94;57.52;99785.43;233123;1216;138993;-58
2022/07/02 11:03:51;;;;;;;14.60;13.00;;;;;;;21.90;57.31;99787.62;233526;1215;139552;-58
2022/07/02 11:08:57;;;;;;;17.50;14.20;;;;;;;21.78;57.34;99794.63;233578;1217;139187;-57
2022/07/02 11:14:17;;;;;;;17.00;13.90;;;;;;;21.78;57.49;99795.98;233424;1217;139895;-58
2022/07/02 11:19:25;;;;;;;15.50;12.40;;;;;;;21.80;57.53;99786.51;233630;1216;139320;-58
2022/07/02 11:24:32;;;;;;;17.20;12.80;;;;;;;21.86;57.68;99790.39;233532;1217;139210;-57
2022/07/02 11:29:35;;;;;;;12.80;11.60;;;;;;;21.93;57.55;99795.45;233699;1217;139827;-58
2022/07/02 11:34:38;;;;;;;14.40;12.90;;;;;;;21.91;57.38;99795.90;233593;1217;139372;-59
2022/07/02 11:39:41;;;;;;;18.60;14.00;;;;;;;21.97;57.54;99790.45;233596;1217;140372;-58
2022/07/02 11:44:44;;;;;;;54.80;49.00;;;;;;;22.14;57.44;99793.11;233398;1217;139315;-58
2022/07/02 11:49:47;;;;;;;12.80;11.10;;;;;;;22.16;57.30;99790.88;233388;1217;139920;-59
2022/07/02 11:54:50;;;;;;;10.50;9.30;;;;;;;22.18;57.16;99795.77;233510;1217;139674;-59
2022/07/02 11:59:53;;;;;;;18.40;14.00;;;;;;;22.16;57.03;99800.13;233668;1215;139246;-59
2022/07/02 12:04:56;;;;;;;9.30;6.60;;;;;;;22.20;57.01;99799.17;233603;1217;138909;-59
2022/07/02 12:09:59;;;;;;;5.20;4.70;;;;;;;22.30;57.00;99795.88;233358;1217;140115;-58
2022/07/02 12:15:03;;;;;;;5.80;4.40;;;;;;;22.45;56.71;99796.69;233488;1217;138843;-59
2022/07/02 12:20:06;;;;;;;12.40;11.10;;;;;;;22.52;56.49;99798.73;233519;1215;138573;-58
2022/07/02 12:25:09;;;;;;;13.10;10.40;;;;;;;22.58;56.43;99788.73;233480;1217;140443;-59
2022/07/02 12:30:13;;;;;;;11.20;8.90;;;;;;;22.59;56.29;99792.39;233520;1217;138903;-58
2022/07/02 12:35:16;;;;;;;11.00;7.10;;;;;;;22.58;56.12;99787.27;233469;1217;139180;-59
2022/07/02 12:40:21;;;;;;;9.10;6.10;;;;;;;22.56;56.19;99778.93;233523;1217;140335;-59
2022/07/02 12:45:33;;;;;;;12.40;7.10;;;;;;;22.67;56.07;99781.31;233529;1217;138792;-59
2022/07/02 12:50:40;;;;;;;6.60;5.90;;;;;;;22.72;55.93;99777.52;233493;1217;138695;-58
2022/07/02 12:55:45;;;;;;;5.20;4.70;;;;;;;22.80;56.01;99772.35;233428;1217;138896;-58
2022/07/02 13:00:48;;;;;;;5.80;5.20;;;;;;;22.89;55.82;99773.25;233555;1217;138820;-58
2022/07/02 13:05:54;;;;;;;4.60;3.70;;;;;;;22.99;55.83;99769.22;233641;1217;139035;-58
2022/07/02 13:10:57;;;;;;;;;;;;;;;23.14;55.60;99766.79;233578;1217;138278;-58
2022/07/02 13:16:00;;;;;;;15.40;4.10;;;;;;;23.22;55.47;99768.65;233474;1217;127161;-61
2022/07/02 13:21:03;;;;;;;5.10;4.60;;;;;;;23.25;55.05;99760.95;233604;1217;139237;-60
2022/07/02 13:26:07;;;;;;;4.80;4.30;;;;;;;23.23;54.94;99759.33;233329;1217;139136;-59
2022/07/02 13:31:10;;;;;;;36.90;26.50;;;;;;;23.23;54.96;99761.65;233477;1217;138979;-58
2022/07/02 13:36:13;;;;;;;4.30;3.90;;;;;;;23.29;54.93;99755.86;233651;1217;139187;-58
2022/07/02 13:41:16;;;;;;;5.40;4.40;;;;;;;23.42;54.96;99748.55;233610;1217;140081;-58
2022/07/02 13:46:19;;;;;;;6.90;4.30;;;;;;;23.54;54.79;99749.23;233474;1217;139098;-59
2022/07/02 13:51:22;;;;;;;6.40;4.20;;;;;;;23.56;54.64;99743.17;233559;1217;139086;-59
2022/07/02 13:56:25;;;;;;;5.10;4.50;;;;;;;23.59;54.43;99745.24;233462;1217;138832;-58
2022/07/02 14:01:28;;;;;;;7.70;4.00;;;;;;;23.61;54.33;99739.92;233544;1217;139347;-59
2022/07/02 14:06:31;;;;;;;27.40;24.60;;;;;;;23.73;54.32;99737.43;233522;1217;139234;-59
2022/07/02 14:11:35;;;;;;;5.00;3.30;;;;;;;23.96;54.05;99731.95;233456;1217;138759;-58
2022/07/02 14:16:38;;;;;;;3.40;2.40;;;;;;;24.03;53.51;99728.79;233509;1217;142000;-59
2022/07/02 14:21:41;;;;;;;2.80;2.40;;;;;;;24.07;53.37;99726.36;233672;1217;138750;-58
2022/07/02 14:26:44;;;;;;;2.80;2.30;;;;;;;24.26;53.12;99720.73;233607;1217;140214;-58
2022/07/02 14:31:49;;;;;;;4.70;2.40;;;;;;;24.38;52.82;99724.88;233658;1217;138189;-59
2022/07/02 14:36:52;;;;;;;2.30;2.00;;;;;;;24.48;52.73;99727.28;233554;1216;139083;-59
2022/07/02 14:42:02;;;;;;;17.10;14.40;;;;;;;24.51;52.30;99718.58;233863;1216;139021;-58
2022/07/02 14:47:05;;;;;;;5.30;2.70;;;;;;;24.41;51.86;99713.13;233010;1215;140137;-59
2022/07/02 14:52:08;;;;;;;2.70;2.30;;;;;;;24.32;51.81;99706.09;233547;1217;139144;-59
2022/07/02 14:57:11;;;;;;;4.90;2.60;;;;;;;24.28;51.85;99707.98;233560;1217;138785;-59
2022/07/02 15:02:14;;;;;;;5.10;2.30;;;;;;;24.23;51.83;99707.91;233642;1217;139041;-59
2022/07/02 15:07:17;;;;;;;20.90;17.80;;;;;;;24.20;51.88;99702.84;233595;1217;138735;-58
2022/07/02 15:12:21;;;;;;;4.80;4.30;;;;;;;24.18;51.85;99698.41;233584;1217;138963;-59
2022/07/02 15:17:24;;;;;;;3.70;2.60;;;;;;;24.19;51.91;99700.75;233608;1217;139621;-58
2022/07/02 15:22:39;;;;;;;2.30;2.00;;;;;;;24.15;51.88;99698.89;233502;1217;138728;-58
2022/07/02 15:27:43;;;;;;;11.40;10.30;;;;;;;24.10;51.74;99694.85;233540;1217;139108;-58
2022/07/02 15:32:47;;;;;;;6.50;5.40;;;;;;;24.07;51.76;99691.16;233538;1217;139252;-59
2022/07/02 15:37:50;;;;;;;4.10;2.50;;;;;;;24.03;51.83;99692.63;233547;1217;138787;-58
2022/07/02 15:42:54;;;;;;;3.10;2.40;;;;;;;23.98;51.86;99688.05;233432;1217;138705;-58
2022/07/02 15:47:58;;;;;;;3.60;2.30;;;;;;;23.96;51.87;99689.34;233672;1217;139150;-58
2022/07/02 15:53:04;;;;;;;66.10;58.60;;;;;;;23.95;51.97;99686.75;233490;1217;138502;-60
2022/07/02 15:58:15;;;;;;;6.80;4.40;;;;;;;24.00;52.02;99689.41;233556;1217;140718;-58
2022/07/02 16:03:25;;;;;;;7.50;3.20;;;;;;;24.08;52.04;99695.63;233427;1217;138951;-58
2022/07/02 16:08:33;;;;;;;3.80;2.40;;;;;;;24.18;52.19;99695.15;233526;1215;139723;-59
2022/07/02 16:13:36;;;;;;;3.20;2.20;;;;;;;24.28;52.07;99694.25;233711;1217;139351;-58
2022/07/02 16:18:40;;;;;;;1.80;1.50;;;;;;;24.39;52.12;99699.14;233606;1216;139160;-59
2022/07/02 16:23:43;;;;;;;2.00;1.60;;;;;;;24.46;52.10;99699.48;233810;1217;138928;-59
2022/07/02 16:28:47;;;;;;;105.70;83.00;;;;;;;24.52;51.94;99702.66;232836;1215;139065;-59
2022/07/02 16:34:02;;;;;;;12.80;10.50;;;;;;;24.58;52.02;99700.17;233300;1217;139505;-59
2022/07/02 16:39:07;;;;;;;10.90;9.00;;;;;;;24.66;51.94;99693.71;233600;1217;140874;-59
2022/07/02 16:44:13;;;;;;;13.70;8.90;;;;;;;24.66;51.91;99694.92;233556;1217;139620;-60
2022/07/02 16:49:20;;;;;;;133.30;119.30;;;;;;;24.75;51.99;99696.84;233605;1217;139126;-58
2022/07/02 16:54:24;;;;;;;17.10;15.30;;;;;;;24.71;51.62;99695.34;233445;1217;139561;-58
2022/07/02 16:59:28;;;;;;;8.80;7.90;;;;;;;24.76;51.76;99696.70;233619;1217;139805;-58
2022/07/02 17:04:33;;;;;;;6.50;4.40;;;;;;;24.85;51.68;99698.34;233445;1217;138439;-58
2022/07/02 17:09:36;;;;;;;6.10;4.60;;;;;;;24.90;51.52;99699.21;233556;1217;138869;-58
2022/07/02 17:14:39;;;;;;;7.40;5.60;;;;;;;24.93;51.35;99699.97;233346;1217;139612;-58
2022/07/02 17:19:42;;;;;;;9.00;7.10;;;;;;;24.95;51.08;99693.15;233266;1217;138654;-58
2022/07/02 17:24:45;;;;;;;8.70;7.20;;;;;;;24.95;50.96;99689.00;233595;1216;139073;-58
2022/07/02 17:29:48;;;;;;;9.30;7.30;;;;;;;24.91;50.84;99685.61;233580;1217;139612;-58
2022/07/02 17:34:51;;;;;;;7.90;7.00;;;;;;;24.91;50.69;99688.97;233379;1216;138393;-58
2022/07/02 17:39:54;;;;;;;8.10;6.40;;;;;;;24.95;50.59;99687.91;233409;1217;139004;-58
2022/07/02 17:44:57;;;;;;;105.10;83.00;;;;;;;24.93;50.35;99690.20;233549;1216;138959;-58
2022/07/02 17:50:00;;;;;;;17.40;11.60;;;;;;;24.88;50.13;99690.38;233522;1217;139347;-59
2022/07/02 17:55:07;;;;;;;8.30;6.90;;;;;;;24.85;50.08;99688.73;233328;1217;139161;-58
2022/07/02 18:00:16;;;;;;;8.40;6.10;;;;;;;24.90;50.12;99687.73;233394;1217;139077;-59
2022/07/02 18:05:19;;;;;;;6.60;5.60;;;;;;;24.94;50.04;99684.61;233075;1216;138668;-59
2022/07/02 18:10:22;;;;;;;10.10;5.80;;;;;;;24.89;49.85;99681.83;233581;1217;138609;-58
2022/07/02 18:15:25;;;;;;;8.20;6.40;;;;;;;24.80;49.68;99679.42;233415;1217;139042;-58
2022/07/02 18:20:29;;;;;;;7.70;6.50;;;;;;;24.74;49.62;99679.59;233273;1217;141597;-59
2022/07/02 18:25:32;;;;;;;8.10;6.40;;;;;;;24.67;49.79;99678.33;233330;1217;138395;-59
2022/07/02 18:30:37;;;;;;;9.90;8.10;;;;;;;24.70;50.09;99680.67;233377;1217;138897;-59
2022/07/02 18:35:40;;;;;;;9.80;8.80;;;;;;;24.71;49.77;99686.91;233667;1217;139152;-58
2022/07/02 18:40:43;;;;;;;9.70;8.40;;;;;;;24.62;49.66;99691.55;233522;1215;139218;-58
2022/07/02 18:45:48;;;;;;;12.10;8.80;;;;;;;24.53;49.67;99689.11;233535;1217;139293;-59
2022/07/02 18:50:51;;;;;;;226.40;166.20;;;;;;;24.35;49.44;99697.94;233305;1217;139183;-58
2022/07/02 18:55:54;;;;;;;16.50;13.70;;;;;;;24.28;50.11;99690.52;233329;1217;139958;-58
2022/07/02 19:00:58;;;;;;;30.90;25.00;;;;;;;24.30;50.16;99689.77;233562;1216;139230;-58
2022/07/02 19:06:02;;;;;;;19.30;15.20;;;;;;;24.31;50.33;99688.23;233678;1217;140198;-58
2022/07/02 19:11:06;;;;;;;7.90;6.80;;;;;;;24.25;50.03;99695.77;233458;1217;139113;-58
2022/07/02 19:16:09;;;;;;;8.50;6.60;;;;;;;23.99;49.55;99698.45;233491;1217;139270;-56
2022/07/02 19:21:13;;;;;;;8.10;6.10;;;;;;;23.63;49.66;99698.34;233588;1217;141931;-57
2022/07/02 19:31:38;;;;;;;7.90;7.00;;;;;;;23.05;50.40;99702.18;233380;1217;139248;-57
2022/07/02 19:36:41;;;;;;;8.20;6.80;;;;;;;22.82;50.74;99694.73;233632;1217;138892;-58
2022/07/02 19:41:45;;;;;;;9.50;7.00;;;;;;;22.60;51.11;99683.42;233710;1217;139097;-56
2022/07/02 19:46:48;;;;;;;8.30;6.90;;;;;;;22.44;51.51;99688.54;233532;1217;138804;-58
2022/07/02 19:51:52;;;;;;;10.80;7.50;;;;;;;22.28;51.79;99690.97;233481;1217;139176;-57
2022/07/02 19:56:55;;;;;;;7.90;7.10;;;;;;;22.12;52.14;99685.34;233447;1217;139085;-57
2022/07/02 20:01:58;;;;;;;7.80;7.00;;;;;;;22.00;52.43;99688.92;233636;1217;138885;-58
2022/07/02 20:07:02;;;;;;;8.60;7.20;;;;;;;21.86;52.74;99690.27;233195;1217;140058;-58
2022/07/02 20:12:06;;;;;;;9.70;7.50;;;;;;;21.75;53.02;99691.58;233816;1216;141296;-59
2022/07/02 20:17:09;;;;;;;8.40;7.20;;;;;;;21.65;53.28;99688.38;233644;1216;139568;-58
2022/07/02 20:22:12;;;;;;;9.00;7.30;;;;;;;21.55;53.55;99687.41;233643;1217;139268;-59
2022/07/02 20:27:15;;;;;;;10.30;7.40;;;;;;;21.47;53.68;99682.91;233456;1217;139493;-56
2022/07/02 20:32:18;;;;;;;8.40;7.20;;;;;;;21.35;54.03;99679.04;233573;1216;138899;-58
2022/07/02 20:37:21;;;;;;;11.80;7.60;;;;;;;21.26;54.28;99680.26;233521;1217;138985;-59
2022/07/02 20:42:25;;;;;;;8.40;6.90;;;;;;;21.21;54.51;99675.27;233539;1216;141298;-60
2022/07/02 20:47:28;;;;;;;9.50;7.50;;;;;;;21.20;54.78;99675.97;233745;1216;139553;-56
2022/07/02 20:52:31;;;;;;;11.90;8.10;;;;;;;21.18;54.91;99671.27;233680;1217;138894;-59
2022/07/02 20:57:38;;;;;;;13.20;9.10;;;;;;;21.16;55.26;99658.31;233518;1215;139367;-61
2022/07/02 21:02:40;;;;;;;12.20;9.10;;;;;;;21.14;55.24;99654.66;233436;1217;139361;-60
2022/07/02 21:07:45;;;;;;;12.50;9.50;;;;;;;21.07;55.25;99652.28;233600;1216;139404;-59
2022/07/02 21:12:53;;;;;;;12.50;9.00;;;;;;;20.96;55.40;99649.14;233584;1217;139145;-58
2022/07/02 21:17:56;;;;;;;11.30;9.30;;;;;;;20.88;55.47;99658.27;233612;1217;138727;-59
2022/07/02 21:22:59;;;;;;;13.60;9.80;;;;;;;20.78;55.55;99667.45;233517;1215;139654;-59
2022/07/02 21:28:02;;;;;;;11.40;8.70;;;;;;;20.69;55.75;99662.40;233656;1216;139878;-57
2022/07/02 21:33:05;;;;;;;10.60;8.10;;;;;;;20.67;55.95;99661.33;233538;1217;138776;-59
2022/07/02 21:38:11;;;;;;;8.10;7.10;;;;;;;20.62;56.10;99659.48;233548;1217;139618;-58
2022/07/02 21:43:14;;;;;;;9.00;6.60;;;;;;;20.59;56.04;99654.52;233491;1217;140049;-60
2022/07/02 21:48:18;;;;;;;7.20;6.40;;;;;;;20.58;56.17;99637.09;233655;1217;139953;-59
2022/07/02 21:53:21;;;;;;;8.10;6.50;;;;;;;20.64;56.35;99640.84;233471;1217;138688;-56
2022/07/02 21:58:24;;;;;;;7.00;6.10;;;;;;;20.64;56.36;99634.25;233460;1217;138475;-59
2022/07/02 22:03:27;;;;;;;8.00;6.00;;;;;;;20.59;56.22;99637.23;233487;1217;138779;-59
2022/07/02 22:08:30;;;;;;;8.90;6.00;;;;;;;20.48;56.26;99638.33;233533;1217;138603;-57
2022/07/02 22:13:33;;;;;;;7.90;6.30;;;;;;;20.36;56.39;99635.48;233596;1217;139190;-57
2022/07/02 22:18:38;;;;;;;8.70;6.60;;;;;;;20.27;56.57;99642.27;233428;1217;139498;-56
2022/07/02 22:23:41;;;;;;;7.70;6.50;;;;;;;20.19;56.61;99645.23;233488;1217;138662;-58
2022/07/02 22:28:44;;;;;;;6.70;6.00;;;;;;;20.10;56.79;99657.05;233382;1217;139051;-56
2022/07/02 22:33:47;;;;;;;7.20;5.70;;;;;;;19.99;56.94;99652.80;233579;1217;139189;-56
2022/07/02 22:38:50;;;;;;;8.10;5.90;;;;;;;19.94;57.14;99643.34;233426;1217;139678;-56
2022/07/02 22:43:55;;;;;;;7.10;6.30;;;;;;;19.93;57.23;99645.05;233436;1217;139142;-59
2022/07/02 22:48:58;;;;;;;11.50;7.00;;;;;;;19.89;57.42;99634.45;233538;1217;139158;-58
2022/07/02 22:54:01;;;;;;;9.00;7.30;;;;;;;19.87;57.36;99634.52;233794;1217;139181;-59
2022/07/02 22:59:04;;;;;;;8.40;7.10;;;;;;;19.78;57.53;99632.36;233522;1217;140554;-58
2022/07/02 23:04:07;;;;;;;9.10;7.90;;;;;;;19.70;57.63;99631.17;233515;1217;139214;-60
2022/07/02 23:09:10;;;;;;;9.50;7.40;;;;;;;19.64;57.69;99635.27;233443;1217;142110;-60
2022/07/02 23:14:13;;;;;;;10.80;7.30;;;;;;;19.55;57.82;99628.84;233335;1216;138575;-62
2022/07/02 23:19:16;;;;;;;13.30;7.40;;;;;;;19.48;57.88;99629.26;233457;1217;140286;-60